Island Park, ID

2:55 AM MST on February 06, 2016 (GMT -0700)
RAWS | | Change Station
CLOSE
Current Station
Personal Weather Station
Location: Island Park, ID
Elevation: 6336 ft
Nearby Weather Stations

Elev 6336 ft 44.42 °N, 111.37 °W | Updated 1 hour ago

Overcast
Overcast
22.0 °F
Feels Like 22.0 °F
N
2.0
Wind Variable Wind from SW
Gusts 5.0 mph

Today
High -- | Low -- °F
--% Chance of Precip.
Yesterday
High -- | Low -- °F
Precip. -- in
Pressure 30.63 in
Visibility 10.0 miles
Clouds Overcast 800 ft
Dew Point 21.0 °F
Humidity 94%
Rainfall in
Snow Depth Not available.
7:38 AM 5:41 PM
Waning Crescent, 6% visible
METAR KRXE 060953Z AUTO 00000KT 10SM OVC008 M07/M09 A3046 RMK AO2 CIG 005V011 SLP371 T10721089
Pressure 30.63 in
Visibility 10.0 miles
Clouds Overcast 800 ft
Dew Point 21.0 °F
Humidity 94%
Rainfall in
Snow Depth Not available.
7:38 AM 5:41 PM
Waning Crescent, 6% visible
METAR KRXE 060953Z AUTO 00000KT 10SM OVC008 M07/M09 A3046 RMK AO2 CIG 005V011 SLP371 T10721089

10-Day Weather Forecast

Almanac

Astronomy

Feb. 06, 2016 Rise Set
Actual Time
Civil Twilight
Nautical Twilight
Astronomical Twilight
Moon
Length of Visible Light
Length of Day
Tomorrow will be .
, % of the Moon is Illuminated

Today's Extremes

State Highs State Lows

Community

WunderPhotos

Upload Photos

1,890,933 photos uploaded!

WunderBlog® & News

Nearby

Air Quality

  Air Quality AQ Index Pollutant
Not available.

Snow Depth

Station Depth Elevation

Earthquake Activity

City Distance Mag. Time & Date
Minimum magnitude displayed is 2.5.

Coastal Water Temperatures

Place Temperature

Stations

Nearby Weather Stations

Station Location Temp. Windchill Dew Point Humidity Wind Precip. Elev Updated Type
                   

Watches & Warnings

There are currently no watches in effect.